sensor_id;sensor_type;location;lat;lon;timestamp;temperature;humidity
42755;DHT22;28407;51.830;5.684;2024-02-16T00:00:22;12.70;89.10
42755;DHT22;28407;51.830;5.684;2024-02-16T00:02:23;12.70;89.20
42755;DHT22;28407;51.830;5.684;2024-02-16T00:04:24;12.60;89.20
42755;DHT22;28407;51.830;5.684;2024-02-16T00:06:25;12.70;89.20
42755;DHT22;28407;51.830;5.684;2024-02-16T00:08:26;12.60;89.20
42755;DHT22;28407;51.830;5.684;2024-02-16T00:10:26;12.60;89.10
42755;DHT22;28407;51.830;5.684;2024-02-16T00:12:27;12.60;89.10
42755;DHT22;28407;51.830;5.684;2024-02-16T00:14:28;12.60;89.20
42755;DHT22;28407;51.830;5.684;2024-02-16T00:16:29;12.60;89.20
42755;DHT22;28407;51.830;5.684;2024-02-16T00:18:29;12.60;89.10
42755;DHT22;28407;51.830;5.684;2024-02-16T00:20:30;12.60;89.10
42755;DHT22;28407;51.830;5.684;2024-02-16T00:22:31;12.60;89.20
42755;DHT22;28407;51.830;5.684;2024-02-16T00:24:33;12.60;89.20
42755;DHT22;28407;51.830;5.684;2024-02-16T00:26:34;12.60;89.20
42755;DHT22;28407;51.830;5.684;2024-02-16T00:28:34;12.60;89.20
42755;DHT22;28407;51.830;5.684;2024-02-16T00:30:35;12.60;89.20
42755;DHT22;28407;51.830;5.684;2024-02-16T00:32:37;12.50;89.10
42755;DHT22;28407;51.830;5.684;2024-02-16T00:34:37;12.50;89.10
42755;DHT22;28407;51.830;5.684;2024-02-16T00:36:38;12.50;89.10
42755;DHT22;28407;51.830;5.684;2024-02-16T00:38:39;12.50;89.10
42755;DHT22;28407;51.830;5.684;2024-02-16T00:40:39;12.50;89.10
42755;DHT22;28407;51.830;5.684;2024-02-16T00:42:44;12.50;89.10
42755;DHT22;28407;51.830;5.684;2024-02-16T00:44:45;12.40;89.10
42755;DHT22;28407;51.830;5.684;2024-02-16T00:46:45;12.50;89.10
42755;DHT22;28407;51.830;5.684;2024-02-16T00:48:46;12.40;89.10
42755;DHT22;28407;51.830;5.684;2024-02-16T00:50:47;12.40;89.10
42755;DHT22;28407;51.830;5.684;2024-02-16T00:52:48;12.40;89.10
42755;DHT22;28407;51.830;5.684;2024-02-16T00:54:49;12.40;89.10
42755;DHT22;28407;51.830;5.684;2024-02-16T00:56:49;12.40;89.10
42755;DHT22;28407;51.830;5.684;2024-02-16T00:58:50;12.40;89.10
42755;DHT22;28407;51.830;5.684;2024-02-16T01:00:51;12.40;89.10
42755;DHT22;28407;51.830;5.684;2024-02-16T01:02:52;12.40;89.10
42755;DHT22;28407;51.830;5.684;2024-02-16T01:04:55;12.40;89.10
42755;DHT22;28407;51.830;5.684;2024-02-16T01:07:02;12.40;89.00
42755;DHT22;28407;51.830;5.684;2024-02-16T01:09:03;12.40;89.00
42755;DHT22;28407;51.830;5.684;2024-02-16T01:11:04;12.40;89.00
42755;DHT22;28407;51.830;5.684;2024-02-16T01:13:05;12.40;89.00
42755;DHT22;28407;51.830;5.684;2024-02-16T01:15:06;12.40;89.00
42755;DHT22;28407;51.830;5.684;2024-02-16T01:17:07;12.40;89.00
42755;DHT22;28407;51.830;5.684;2024-02-16T01:19:08;12.40;89.00
42755;DHT22;28407;51.830;5.684;2024-02-16T01:21:10;12.40;89.00
42755;DHT22;28407;51.830;5.684;2024-02-16T01:23:10;12.40;89.00
42755;DHT22;28407;51.830;5.684;2024-02-16T01:25:11;12.30;88.90
42755;DHT22;28407;51.830;5.684;2024-02-16T01:27:12;12.30;88.90
42755;DHT22;28407;51.830;5.684;2024-02-16T01:29:13;12.30;88.90
42755;DHT22;28407;51.830;5.684;2024-02-16T01:31:14;12.30;88.90
42755;DHT22;28407;51.830;5.684;2024-02-16T01:33:15;12.30;88.90
42755;DHT22;28407;51.830;5.684;2024-02-16T01:35:16;12.30;88.90
42755;DHT22;28407;51.830;5.684;2024-02-16T01:37:17;12.30;88.90
42755;DHT22;28407;51.830;5.684;2024-02-16T01:39:17;12.30;88.90
42755;DHT22;28407;51.830;5.684;2024-02-16T01:41:18;12.30;88.90
42755;DHT22;28407;51.830;5.684;2024-02-16T01:43:22;12.30;88.90
42755;DHT22;28407;51.830;5.684;2024-02-16T01:45:23;12.30;88.90
42755;DHT22;28407;51.830;5.684;2024-02-16T01:47:24;12.30;88.90
42755;DHT22;28407;51.830;5.684;2024-02-16T01:49:25;12.30;88.90
42755;DHT22;28407;51.830;5.684;2024-02-16T01:51:25;12.30;88.90
42755;DHT22;28407;51.830;5.684;2024-02-16T01:53:27;12.20;88.80
42755;DHT22;28407;51.830;5.684;2024-02-16T01:55:28;12.30;88.80
42755;DHT22;28407;51.830;5.684;2024-02-16T01:57:31;12.30;88.80
42755;DHT22;28407;51.830;5.684;2024-02-16T01:59:32;12.20;88.70
42755;DHT22;28407;51.830;5.684;2024-02-16T02:01:33;12.20;88.70
42755;DHT22;28407;51.830;5.684;2024-02-16T02:03:34;12.20;88.70
42755;DHT22;28407;51.830;5.684;2024-02-16T02:05:46;12.20;88.70
42755;DHT22;28407;51.830;5.684;2024-02-16T02:07:47;12.20;88.70
42755;DHT22;28407;51.830;5.684;2024-02-16T02:09:48;12.20;88.70
42755;DHT22;28407;51.830;5.684;2024-02-16T02:11:49;12.20;88.70
42755;DHT22;28407;51.830;5.684;2024-02-16T02:13:49;12.20;88.70
42755;DHT22;28407;51.830;5.684;2024-02-16T02:15:50;12.20;88.70
42755;DHT22;28407;51.830;5.684;2024-02-16T02:17:51;12.20;88.70
42755;DHT22;28407;51.830;5.684;2024-02-16T02:19:52;12.20;88.70
42755;DHT22;28407;51.830;5.684;2024-02-16T02:21:53;12.20;88.80
42755;DHT22;28407;51.830;5.684;2024-02-16T02:23:53;12.20;88.70
42755;DHT22;28407;51.830;5.684;2024-02-16T02:25:54;12.20;88.60
42755;DHT22;28407;51.830;5.684;2024-02-16T02:27:55;12.20;88.60
42755;DHT22;28407;51.830;5.684;2024-02-16T02:29:56;12.30;88.70
42755;DHT22;28407;51.830;5.684;2024-02-16T02:31:57;12.20;88.60
42755;DHT22;28407;51.830;5.684;2024-02-16T02:33:57;12.30;88.60
42755;DHT22;28407;51.830;5.684;2024-02-16T02:35:58;12.20;88.50
42755;DHT22;28407;51.830;5.684;2024-02-16T02:37:59;12.30;88.50
42755;DHT22;28407;51.830;5.684;2024-02-16T02:39:59;12.20;88.50
42755;DHT22;28407;51.830;5.684;2024-02-16T02:42:00;12.30;88.50
42755;DHT22;28407;51.830;5.684;2024-02-16T02:44:01;12.30;88.50
42755;DHT22;28407;51.830;5.684;2024-02-16T02:46:02;12.30;88.50
42755;DHT22;28407;51.830;5.684;2024-02-16T02:48:03;12.30;88.50
42755;DHT22;28407;51.830;5.684;2024-02-16T02:50:04;12.30;88.50
42755;DHT22;28407;51.830;5.684;2024-02-16T02:52:05;12.20;88.40
42755;DHT22;28407;51.830;5.684;2024-02-16T02:54:07;12.20;88.40
42755;DHT22;28407;51.830;5.684;2024-02-16T02:56:07;12.20;88.40
42755;DHT22;28407;51.830;5.684;2024-02-16T02:58:08;12.20;88.30
42755;DHT22;28407;51.830;5.684;2024-02-16T03:00:09;12.20;88.30
42755;DHT22;28407;51.830;5.684;2024-02-16T03:02:13;12.20;88.30
42755;DHT22;28407;51.830;5.684;2024-02-16T03:04:14;12.20;88.30
42755;DHT22;28407;51.830;5.684;2024-02-16T03:06:18;12.30;88.30
42755;DHT22;28407;51.830;5.684;2024-02-16T03:08:19;12.20;88.30
42755;DHT22;28407;51.830;5.684;2024-02-16T03:10:20;12.20;88.30
42755;DHT22;28407;51.830;5.684;2024-02-16T03:12:22;12.20;88.20
42755;DHT22;28407;51.830;5.684;2024-02-16T03:14:23;12.20;88.20
42755;DHT22;28407;51.830;5.684;2024-02-16T03:16:24;12.20;88.20
42755;DHT22;28407;51.830;5.684;2024-02-16T03:18:24;12.20;88.20
42755;DHT22;28407;51.830;5.684;2024-02-16T03:20:25;12.20;88.20
42755;DHT22;28407;51.830;5.684;2024-02-16T03:22:26;12.20;88.20
42755;DHT22;28407;51.830;5.684;2024-02-16T03:24:26;12.20;88.10
42755;DHT22;28407;51.830;5.684;2024-02-16T03:26:27;12.20;88.10
42755;DHT22;28407;51.830;5.684;2024-02-16T03:28:28;12.20;88.20
42755;DHT22;28407;51.830;5.684;2024-02-16T03:30:29;12.20;88.10
42755;DHT22;28407;51.830;5.684;2024-02-16T03:32:31;12.20;88.70
42755;DHT22;28407;51.830;5.684;2024-02-16T03:34:31;12.20;88.10
42755;DHT22;28407;51.830;5.684;2024-02-16T03:36:33;12.20;88.10
42755;DHT22;28407;51.830;5.684;2024-02-16T03:38:33;12.20;88.10
42755;DHT22;28407;51.830;5.684;2024-02-16T03:40:34;12.10;88.00
42755;DHT22;28407;51.830;5.684;2024-02-16T03:42:35;12.20;88.10
42755;DHT22;28407;51.830;5.684;2024-02-16T03:44:36;12.20;88.00
42755;DHT22;28407;51.830;5.684;2024-02-16T03:46:37;12.20;88.10
42755;DHT22;28407;51.830;5.684;2024-02-16T03:48:38;12.20;88.00
42755;DHT22;28407;51.830;5.684;2024-02-16T03:50:39;12.20;88.00
42755;DHT22;28407;51.830;5.684;2024-02-16T03:52:40;12.20;88.00
42755;DHT22;28407;51.830;5.684;2024-02-16T03:54:41;12.10;87.90
42755;DHT22;28407;51.830;5.684;2024-02-16T03:56:44;12.20;87.90
42755;DHT22;28407;51.830;5.684;2024-02-16T03:58:45;12.10;87.80
42755;DHT22;28407;51.830;5.684;2024-02-16T04:00:46;12.20;87.90
42755;DHT22;28407;51.830;5.684;2024-02-16T04:02:48;12.20;87.90
42755;DHT22;28407;51.830;5.684;2024-02-16T04:04:49;12.20;87.90
42755;DHT22;28407;51.830;5.684;2024-02-16T04:06:49;12.20;87.80
42755;DHT22;28407;51.830;5.684;2024-02-16T04:08:50;12.20;87.80
42755;DHT22;28407;51.830;5.684;2024-02-16T04:10:51;12.10;87.70
42755;DHT22;28407;51.830;5.684;2024-02-16T04:12:51;12.20;87.70
42755;DHT22;28407;51.830;5.684;2024-02-16T04:14:52;12.20;87.70
42755;DHT22;28407;51.830;5.684;2024-02-16T04:16:53;12.20;87.70
42755;DHT22;28407;51.830;5.684;2024-02-16T04:18:53;12.20;87.70
42755;DHT22;28407;51.830;5.684;2024-02-16T04:20:55;12.20;87.70
42755;DHT22;28407;51.830;5.684;2024-02-16T04:22:56;12.20;87.60
42755;DHT22;28407;51.830;5.684;2024-02-16T04:24:57;12.20;87.60
42755;DHT22;28407;51.830;5.684;2024-02-16T04:26:57;12.20;87.60
42755;DHT22;28407;51.830;5.684;2024-02-16T04:28:58;12.20;87.50
42755;DHT22;28407;51.830;5.684;2024-02-16T04:30:59;12.20;87.50
42755;DHT22;28407;51.830;5.684;2024-02-16T04:32:59;12.20;87.50
42755;DHT22;28407;51.830;5.684;2024-02-16T04:35:00;12.20;87.40
42755;DHT22;28407;51.830;5.684;2024-02-16T04:37:01;12.20;87.40
42755;DHT22;28407;51.830;5.684;2024-02-16T04:39:02;12.20;87.40
42755;DHT22;28407;51.830;5.684;2024-02-16T04:41:05;12.20;87.40
42755;DHT22;28407;51.830;5.684;2024-02-16T04:43:06;12.20;87.40
42755;DHT22;28407;51.830;5.684;2024-02-16T04:45:07;12.20;87.40
42755;DHT22;28407;51.830;5.684;2024-02-16T04:47:11;12.30;87.40
42755;DHT22;28407;51.830;5.684;2024-02-16T04:49:12;12.20;87.40
42755;DHT22;28407;51.830;5.684;2024-02-16T04:51:13;12.30;87.40
42755;DHT22;28407;51.830;5.684;2024-02-16T04:53:14;12.30;88.10
42755;DHT22;28407;51.830;5.684;2024-02-16T04:55:15;12.30;87.40
42755;DHT22;28407;51.830;5.684;2024-02-16T04:57:15;12.30;87.40
42755;DHT22;28407;51.830;5.684;2024-02-16T04:59:16;12.30;87.40
42755;DHT22;28407;51.830;5.684;2024-02-16T05:01:17;12.30;87.40
42755;DHT22;28407;51.830;5.684;2024-02-16T05:03:18;12.30;87.30
42755;DHT22;28407;51.830;5.684;2024-02-16T05:05:19;12.30;87.30
42755;DHT22;28407;51.830;5.684;2024-02-16T05:07:19;12.30;87.20
42755;DHT22;28407;51.830;5.684;2024-02-16T05:09:20;12.30;87.20
42755;DHT22;28407;51.830;5.684;2024-02-16T05:11:21;12.30;87.20
42755;DHT22;28407;51.830;5.684;2024-02-16T05:13:22;12.30;87.20
42755;DHT22;28407;51.830;5.684;2024-02-16T05:15:23;12.30;87.30
42755;DHT22;28407;51.830;5.684;2024-02-16T05:17:24;12.30;87.40
42755;DHT22;28407;51.830;5.684;2024-02-16T05:19:24;12.30;87.40
42755;DHT22;28407;51.830;5.684;2024-02-16T05:21:25;12.30;87.40
42755;DHT22;28407;51.830;5.684;2024-02-16T05:23:26;12.30;87.40
42755;DHT22;28407;51.830;5.684;2024-02-16T05:25:27;12.30;87.40
42755;DHT22;28407;51.830;5.684;2024-02-16T05:27:27;12.30;87.40
42755;DHT22;28407;51.830;5.684;2024-02-16T05:29:28;12.30;87.40
42755;DHT22;28407;51.830;5.684;2024-02-16T05:31:29;12.30;87.40
42755;DHT22;28407;51.830;5.684;2024-02-16T05:33:31;12.30;87.40
42755;DHT22;28407;51.830;5.684;2024-02-16T05:35:32;12.30;87.40
42755;DHT22;28407;51.830;5.684;2024-02-16T05:37:34;12.30;87.40
42755;DHT22;28407;51.830;5.684;2024-02-16T05:39:37;12.30;87.50
42755;DHT22;28407;51.830;5.684;2024-02-16T05:41:54;12.30;87.40
42755;DHT22;28407;51.830;5.684;2024-02-16T05:43:54;12.30;87.50
42755;DHT22;28407;51.830;5.684;2024-02-16T05:45:55;12.30;87.40
42755;DHT22;28407;51.830;5.684;2024-02-16T05:47:56;12.30;87.40
42755;DHT22;28407;51.830;5.684;2024-02-16T05:49:56;12.30;87.40
42755;DHT22;28407;51.830;5.684;2024-02-16T05:51:59;12.30;87.50
42755;DHT22;28407;51.830;5.684;2024-02-16T05:54:17;12.30;87.50
42755;DHT22;28407;51.830;5.684;2024-02-16T05:56:18;12.30;87.50
42755;DHT22;28407;51.830;5.684;2024-02-16T05:58:19;12.30;87.60
42755;DHT22;28407;51.830;5.684;2024-02-16T06:00:20;12.30;87.60
42755;DHT22;28407;51.830;5.684;2024-02-16T06:02:21;12.20;87.50
42755;DHT22;28407;51.830;5.684;2024-02-16T06:04:25;12.30;87.70
42755;DHT22;28407;51.830;5.684;2024-02-16T06:06:27;12.20;87.60
42755;DHT22;28407;51.830;5.684;2024-02-16T06:08:27;12.20;87.70
42755;DHT22;28407;51.830;5.684;2024-02-16T06:10:28;12.20;87.70
42755;DHT22;28407;51.830;5.684;2024-02-16T06:12:29;12.20;87.70
42755;DHT22;28407;51.830;5.684;2024-02-16T06:14:33;12.20;87.70
42755;DHT22;28407;51.830;5.684;2024-02-16T06:16:33;12.20;87.80
42755;DHT22;28407;51.830;5.684;2024-02-16T06:18:35;12.20;87.80
42755;DHT22;28407;51.830;5.684;2024-02-16T06:20:36;12.20;87.80
42755;DHT22;28407;51.830;5.684;2024-02-16T06:22:37;12.20;87.90
42755;DHT22;28407;51.830;5.684;2024-02-16T06:24:38;12.20;87.80
42755;DHT22;28407;51.830;5.684;2024-02-16T06:26:38;12.20;87.90
42755;DHT22;28407;51.830;5.684;2024-02-16T06:28:39;12.20;87.80
42755;DHT22;28407;51.830;5.684;2024-02-16T06:30:40;12.20;87.80
42755;DHT22;28407;51.830;5.684;2024-02-16T06:32:40;12.20;87.80
42755;DHT22;28407;51.830;5.684;2024-02-16T06:34:41;12.20;87.80
42755;DHT22;28407;51.830;5.684;2024-02-16T06:36:42;12.20;87.80
42755;DHT22;28407;51.830;5.684;2024-02-16T06:38:43;12.30;87.90
42755;DHT22;28407;51.830;5.684;2024-02-16T06:40:44;12.20;87.90
42755;DHT22;28407;51.830;5.684;2024-02-16T06:42:44;12.30;87.90
42755;DHT22;28407;51.830;5.684;2024-02-16T06:44:46;12.30;87.90
42755;DHT22;28407;51.830;5.684;2024-02-16T06:46:47;12.30;87.90
42755;DHT22;28407;51.830;5.684;2024-02-16T06:48:48;12.30;87.90
42755;DHT22;28407;51.830;5.684;2024-02-16T06:50:48;12.30;87.90
42755;DHT22;28407;51.830;5.684;2024-02-16T06:52:49;12.30;87.90
42755;DHT22;28407;51.830;5.684;2024-02-16T06:54:50;12.30;87.90
42755;DHT22;28407;51.830;5.684;2024-02-16T06:56:52;12.30;88.00
42755;DHT22;28407;51.830;5.684;2024-02-16T06:58:52;12.30;88.60
42755;DHT22;28407;51.830;5.684;2024-02-16T07:00:54;12.30;88.00
42755;DHT22;28407;51.830;5.684;2024-02-16T07:02:55;12.30;88.00
42755;DHT22;28407;51.830;5.684;2024-02-16T07:04:56;12.40;88.00
42755;DHT22;28407;51.830;5.684;2024-02-16T07:06:56;12.40;88.00
42755;DHT22;28407;51.830;5.684;2024-02-16T07:08:57;12.40;88.00
42755;DHT22;28407;51.830;5.684;2024-02-16T07:10:58;12.40;88.00
42755;DHT22;28407;51.830;5.684;2024-02-16T07:12:59;12.40;87.90
42755;DHT22;28407;51.830;5.684;2024-02-16T07:15:00;12.40;87.90
42755;DHT22;28407;51.830;5.684;2024-02-16T07:17:01;12.40;87.90
42755;DHT22;28407;51.830;5.684;2024-02-16T07:19:01;12.40;87.90
42755;DHT22;28407;51.830;5.684;2024-02-16T07:21:02;12.50;87.90
42755;DHT22;28407;51.830;5.684;2024-02-16T07:23:03;12.50;87.90
42755;DHT22;28407;51.830;5.684;2024-02-16T07:25:04;12.50;87.90
42755;DHT22;28407;51.830;5.684;2024-02-16T07:27:05;12.50;87.90
42755;DHT22;28407;51.830;5.684;2024-02-16T07:29:06;12.50;87.90
42755;DHT22;28407;51.830;5.684;2024-02-16T07:31:06;12.50;87.90
42755;DHT22;28407;51.830;5.684;2024-02-16T07:33:08;12.60;87.90
42755;DHT22;28407;51.830;5.684;2024-02-16T07:35:08;12.60;87.90
42755;DHT22;28407;51.830;5.684;2024-02-16T07:37:10;12.60;87.90
42755;DHT22;28407;51.830;5.684;2024-02-16T07:39:11;12.70;87.90
42755;DHT22;28407;51.830;5.684;2024-02-16T07:41:12;12.70;87.90
42755;DHT22;28407;51.830;5.684;2024-02-16T07:43:13;12.70;87.90
42755;DHT22;28407;51.830;5.684;2024-02-16T07:45:14;12.70;87.90
42755;DHT22;28407;51.830;5.684;2024-02-16T07:47:14;12.70;87.80
42755;DHT22;28407;51.830;5.684;2024-02-16T07:49:16;12.80;87.90
42755;DHT22;28407;51.830;5.684;2024-02-16T07:51:16;12.80;87.80
42755;DHT22;28407;51.830;5.684;2024-02-16T07:53:17;12.80;87.80
42755;DHT22;28407;51.830;5.684;2024-02-16T07:55:18;12.80;87.80
42755;DHT22;28407;51.830;5.684;2024-02-16T07:57:19;12.80;87.80
42755;DHT22;28407;51.830;5.684;2024-02-16T07:59:19;12.90;87.80
42755;DHT22;28407;51.830;5.684;2024-02-16T08:01:20;12.80;87.70
42755;DHT22;28407;51.830;5.684;2024-02-16T08:03:21;12.90;87.80
42755;DHT22;28407;51.830;5.684;2024-02-16T08:05:21;12.90;87.70
42755;DHT22;28407;51.830;5.684;2024-02-16T08:07:23;12.90;87.70
42755;DHT22;28407;51.830;5.684;2024-02-16T08:09:24;13.00;87.60
42755;DHT22;28407;51.830;5.684;2024-02-16T08:11:25;13.00;87.60
42755;DHT22;28407;51.830;5.684;2024-02-16T08:13:26;13.00;87.60
42755;DHT22;28407;51.830;5.684;2024-02-16T08:15:27;13.00;87.50
42755;DHT22;28407;51.830;5.684;2024-02-16T08:17:27;13.10;87.50
42755;DHT22;28407;51.830;5.684;2024-02-16T08:19:32;13.10;88.10
42755;DHT22;28407;51.830;5.684;2024-02-16T08:21:34;13.10;87.50
42755;DHT22;28407;51.830;5.684;2024-02-16T08:23:35;13.10;87.50
42755;DHT22;28407;51.830;5.684;2024-02-16T08:25:35;13.10;87.50
42755;DHT22;28407;51.830;5.684;2024-02-16T08:27:36;13.20;87.50
42755;DHT22;28407;51.830;5.684;2024-02-16T08:29:38;13.20;87.50
42755;DHT22;28407;51.830;5.684;2024-02-16T08:31:39;13.20;87.40
42755;DHT22;28407;51.830;5.684;2024-02-16T08:33:40;13.20;87.40
42755;DHT22;28407;51.830;5.684;2024-02-16T08:35:40;13.20;87.40
42755;DHT22;28407;51.830;5.684;2024-02-16T08:37:41;13.20;87.40
42755;DHT22;28407;51.830;5.684;2024-02-16T08:39:42;13.30;87.50
42755;DHT22;28407;51.830;5.684;2024-02-16T08:41:42;13.30;87.50
42755;DHT22;28407;51.830;5.684;2024-02-16T08:43:48;13.30;87.50
42755;DHT22;28407;51.830;5.684;2024-02-16T08:45:49;13.30;87.50
42755;DHT22;28407;51.830;5.684;2024-02-16T08:47:50;13.30;87.50
42755;DHT22;28407;51.830;5.684;2024-02-16T08:49:50;13.30;87.50
42755;DHT22;28407;51.830;5.684;2024-02-16T08:51:51;13.30;87.60
42755;DHT22;28407;51.830;5.684;2024-02-16T08:53:52;13.30;87.60
42755;DHT22;28407;51.830;5.684;2024-02-16T08:55:53;13.40;87.60
42755;DHT22;28407;51.830;5.684;2024-02-16T08:57:53;13.40;87.70
42755;DHT22;28407;51.830;5.684;2024-02-16T08:59:54;13.30;87.70
42755;DHT22;28407;51.830;5.684;2024-02-16T09:01:56;13.40;87.80
42755;DHT22;28407;51.830;5.684;2024-02-16T09:03:59;13.40;87.80
42755;DHT22;28407;51.830;5.684;2024-02-16T09:06:00;13.40;87.80
42755;DHT22;28407;51.830;5.684;2024-02-16T09:08:02;13.40;87.80
42755;DHT22;28407;51.830;5.684;2024-02-16T09:10:04;13.40;87.80
42755;DHT22;28407;51.830;5.684;2024-02-16T09:12:05;13.40;87.90
42755;DHT22;28407;51.830;5.684;2024-02-16T09:14:06;13.40;87.90
42755;DHT22;28407;51.830;5.684;2024-02-16T09:16:07;13.40;88.00
42755;DHT22;28407;51.830;5.684;2024-02-16T09:18:07;13.40;88.00
42755;DHT22;28407;51.830;5.684;2024-02-16T09:20:08;13.40;88.00
42755;DHT22;28407;51.830;5.684;2024-02-16T09:22:09;13.40;88.10
42755;DHT22;28407;51.830;5.684;2024-02-16T09:24:10;13.40;88.00
42755;DHT22;28407;51.830;5.684;2024-02-16T09:26:15;13.40;88.10
42755;DHT22;28407;51.830;5.684;2024-02-16T09:28:17;13.40;88.80
42755;DHT22;28407;51.830;5.684;2024-02-16T09:30:21;13.40;88.10
42755;DHT22;28407;51.830;5.684;2024-02-16T09:32:22;13.40;88.20
42755;DHT22;28407;51.830;5.684;2024-02-16T09:34:23;13.40;88.20
42755;DHT22;28407;51.830;5.684;2024-02-16T09:36:23;13.50;88.20
42755;DHT22;28407;51.830;5.684;2024-02-16T09:38:24;13.40;88.20
42755;DHT22;28407;51.830;5.684;2024-02-16T09:40:25;13.50;88.30
42755;DHT22;28407;51.830;5.684;2024-02-16T09:42:26;13.50;88.30
42755;DHT22;28407;51.830;5.684;2024-02-16T09:44:28;13.50;88.30
42755;DHT22;28407;51.830;5.684;2024-02-16T09:46:31;13.50;88.30
42755;DHT22;28407;51.830;5.684;2024-02-16T09:48:32;13.50;88.30
42755;DHT22;28407;51.830;5.684;2024-02-16T09:50:33;13.50;88.30
42755;DHT22;28407;51.830;5.684;2024-02-16T09:52:36;13.60;88.40
42755;DHT22;28407;51.830;5.684;2024-02-16T09:54:37;13.50;88.30
42755;DHT22;28407;51.830;5.684;2024-02-16T09:56:39;13.60;88.40
42755;DHT22;28407;51.830;5.684;2024-02-16T09:58:40;13.50;88.30
42755;DHT22;28407;51.830;5.684;2024-02-16T10:00:41;13.50;88.20
42755;DHT22;28407;51.830;5.684;2024-02-16T10:02:47;13.50;88.30
42755;DHT22;28407;51.830;5.684;2024-02-16T10:04:49;13.60;88.40
42755;DHT22;28407;51.830;5.684;2024-02-16T10:06:50;13.60;88.30
42755;DHT22;28407;51.830;5.684;2024-02-16T10:08:54;13.60;88.30
42755;DHT22;28407;51.830;5.684;2024-02-16T10:11:04;13.60;88.30
42755;DHT22;28407;51.830;5.684;2024-02-16T10:13:05;13.60;88.30
42755;DHT22;28407;51.830;5.684;2024-02-16T10:15:07;13.60;88.30
42755;DHT22;28407;51.830;5.684;2024-02-16T10:17:07;13.70;88.40
42755;DHT22;28407;51.830;5.684;2024-02-16T10:19:09;13.70;88.40
42755;DHT22;28407;51.830;5.684;2024-02-16T10:21:11;13.70;88.50
42755;DHT22;28407;51.830;5.684;2024-02-16T10:23:12;13.70;88.40
42755;DHT22;28407;51.830;5.684;2024-02-16T10:25:13;13.70;88.50
42755;DHT22;28407;51.830;5.684;2024-02-16T10:27:18;13.70;88.50
42755;DHT22;28407;51.830;5.684;2024-02-16T10:29:19;13.70;88.50
42755;DHT22;28407;51.830;5.684;2024-02-16T10:31:23;13.70;88.60
42755;DHT22;28407;51.830;5.684;2024-02-16T10:33:29;13.70;88.60
42755;DHT22;28407;51.830;5.684;2024-02-16T10:35:30;13.70;88.60
42755;DHT22;28407;51.830;5.684;2024-02-16T10:37:31;13.70;88.70
42755;DHT22;28407;51.830;5.684;2024-02-16T10:39:33;13.70;88.70
42755;DHT22;28407;51.830;5.684;2024-02-16T10:41:40;13.70;88.70
42755;DHT22;28407;51.830;5.684;2024-02-16T10:43:41;13.70;88.80
42755;DHT22;28407;51.830;5.684;2024-02-16T10:45:42;13.70;88.80
42755;DHT22;28407;51.830;5.684;2024-02-16T10:47:44;13.70;88.80
42755;DHT22;28407;51.830;5.684;2024-02-16T10:49:45;13.70;88.80
42755;DHT22;28407;51.830;5.684;2024-02-16T10:51:51;13.70;88.90
42755;DHT22;28407;51.830;5.684;2024-02-16T10:53:56;13.80;89.00
42755;DHT22;28407;51.830;5.684;2024-02-16T10:55:59;13.70;89.00
42755;DHT22;28407;51.830;5.684;2024-02-16T10:58:00;13.70;89.00
42755;DHT22;28407;51.830;5.684;2024-02-16T11:00:08;13.70;89.10
42755;DHT22;28407;51.830;5.684;2024-02-16T11:02:10;13.70;89.20
42755;DHT22;28407;51.830;5.684;2024-02-16T11:04:17;13.70;89.20
42755;DHT22;28407;51.830;5.684;2024-02-16T11:06:18;13.70;89.40
42755;DHT22;28407;51.830;5.684;2024-02-16T11:08:23;13.70;89.40
42755;DHT22;28407;51.830;5.684;2024-02-16T11:10:26;13.70;89.60
42755;DHT22;28407;51.830;5.684;2024-02-16T11:12:33;13.70;89.60
42755;DHT22;28407;51.830;5.684;2024-02-16T11:14:39;13.70;89.90
42755;DHT22;28407;51.830;5.684;2024-02-16T11:16:53;13.70;89.80
42755;DHT22;28407;51.830;5.684;2024-02-16T11:18:54;13.60;89.90
42755;DHT22;28407;51.830;5.684;2024-02-16T11:20:54;13.70;90.00
42755;DHT22;28407;51.830;5.684;2024-02-16T11:23:05;13.60;90.20
42755;DHT22;28407;51.830;5.684;2024-02-16T11:25:12;13.60;90.00
42755;DHT22;28407;51.830;5.684;2024-02-16T11:27:13;13.60;90.10
42755;DHT22;28407;51.830;5.684;2024-02-16T11:29:22;13.60;90.10
42755;DHT22;28407;51.830;5.684;2024-02-16T11:31:23;13.60;90.10
42755;DHT22;28407;51.830;5.684;2024-02-16T11:33:26;13.50;90.20
42755;DHT22;28407;51.830;5.684;2024-02-16T11:35:29;13.50;90.20
42755;DHT22;28407;51.830;5.684;2024-02-16T11:37:33;13.50;90.20
42755;DHT22;28407;51.830;5.684;2024-02-16T11:39:37;13.50;90.30
42755;DHT22;28407;51.830;5.684;2024-02-16T11:41:39;13.50;90.30
42755;DHT22;28407;51.830;5.684;2024-02-16T11:43:43;13.50;90.40
42755;DHT22;28407;51.830;5.684;2024-02-16T11:45:44;13.50;90.40
42755;DHT22;28407;51.830;5.684;2024-02-16T11:47:44;13.50;90.40
42755;DHT22;28407;51.830;5.684;2024-02-16T11:49:46;13.50;90.50
42755;DHT22;28407;51.830;5.684;2024-02-16T11:51:47;13.50;90.50
42755;DHT22;28407;51.830;5.684;2024-02-16T11:53:55;13.50;90.60
42755;DHT22;28407;51.830;5.684;2024-02-16T11:55:57;13.50;90.60
42755;DHT22;28407;51.830;5.684;2024-02-16T11:57:58;13.50;90.60
42755;DHT22;28407;51.830;5.684;2024-02-16T12:00:00;13.50;90.60
42755;DHT22;28407;51.830;5.684;2024-02-16T12:02:05;13.50;90.70
42755;DHT22;28407;51.830;5.684;2024-02-16T12:04:28;13.50;90.70
42755;DHT22;28407;51.830;5.684;2024-02-16T12:06:29;13.50;90.70
42755;DHT22;28407;51.830;5.684;2024-02-16T12:08:34;13.50;90.70
42755;DHT22;28407;51.830;5.684;2024-02-16T12:10:36;13.50;90.70
42755;DHT22;28407;51.830;5.684;2024-02-16T12:12:39;13.50;90.80
42755;DHT22;28407;51.830;5.684;2024-02-16T12:14:42;13.50;90.80
42755;DHT22;28407;51.830;5.684;2024-02-16T12:16:50;13.50;90.80
42755;DHT22;28407;51.830;5.684;2024-02-16T12:18:51;13.50;90.80
42755;DHT22;28407;51.830;5.684;2024-02-16T12:21:02;13.50;90.80
42755;DHT22;28407;51.830;5.684;2024-02-16T12:23:12;13.50;90.90
42755;DHT22;28407;51.830;5.684;2024-02-16T12:25:15;13.50;90.90
42755;DHT22;28407;51.830;5.684;2024-02-16T12:27:21;13.50;90.90
42755;DHT22;28407;51.830;5.684;2024-02-16T12:29:24;13.40;90.90
42755;DHT22;28407;51.830;5.684;2024-02-16T12:31:25;13.40;90.90
42755;DHT22;28407;51.830;5.684;2024-02-16T12:33:26;13.50;90.90
42755;DHT22;28407;51.830;5.684;2024-02-16T12:35:27;13.40;91.00
42755;DHT22;28407;51.830;5.684;2024-02-16T12:37:34;13.40;91.00
42755;DHT22;28407;51.830;5.684;2024-02-16T12:39:39;13.40;91.00
42755;DHT22;28407;51.830;5.684;2024-02-16T12:41:40;13.40;91.00
42755;DHT22;28407;51.830;5.684;2024-02-16T12:43:43;13.40;91.10
42755;DHT22;28407;51.830;5.684;2024-02-16T12:45:44;13.40;91.10
42755;DHT22;28407;51.830;5.684;2024-02-16T12:47:44;13.40;91.10